Aviation Digital Data Service (ADDS)

Output produced by METARs form (1353 UTC 13 December 2019)
found at http://www.aviationweather.gov/metar/data/
 
METAR text: OPKC 131325Z 22008KT 3000 FU NSC 21/12 Q1015 NOSIG
Conditions at: OPKC (KARACHI INTL ARP, PK) observed 1325 UTC 13 December 2019
Temperature: 21.0°C (70°F)
Dewpoint: 12.0°C (54°F) [RH = 56%]
Pressure (altimeter): 29.97 inches Hg (1015.0 mb)
Winds: from the SW (220 degrees) at 9 MPH (8 knots; 4.1 m/s)
Visibility: 1.86 miles (2.99 km)
Ceiling: at least 12,000 feet AGL
Clouds: sky clear below 12,000 feet AGL
Weather: FU  (smoke)

METAR text: OPKC 131255Z METAR
Conditions at: OPKC (KARACHI INTL ARP, PK) observed 1255 UTC 13 December 2019
Temperature: missing
Dewpoint: missing
Pressure (altimeter): missing
Winds: missing
Visibility: missing
Ceiling: unknown
Clouds: missing
Weather: no significant weather observed at this time

METAR text: OPKC 131225Z 25006KT 3000 FU NSC 23/12 Q1014 NOSIG
Conditions at: OPKC (KARACHI INTL ARP, PK) observed 1225 UTC 13 December 2019
Temperature: 23.0°C (73°F)
Dewpoint: 12.0°C (54°F) [RH = 50%]
Pressure (altimeter): 29.94 inches Hg (1014.0 mb)
Winds: from the WSW (250 degrees) at 7 MPH (6 knots; 3.1 m/s)
Visibility: 1.86 miles (2.99 km)
Ceiling: at least 12,000 feet AGL
Clouds: sky clear below 12,000 feet AGL
Weather: FU  (smoke)

METAR text: OPKC 131155Z 23003KT 3000 HZ NSC 23/12 Q1014 NOSIG
Conditions at: OPKC (KARACHI INTL ARP, PK) observed 1155 UTC 13 December 2019
Temperature: 23.0°C (73°F)
Dewpoint: 12.0°C (54°F) [RH = 50%]
Pressure (altimeter): 29.94 inches Hg (1014.0 mb)
Winds: from the SW (230 degrees) at 3 MPH (3 knots; 1.5 m/s)
Visibility: 1.86 miles (2.99 km)
Ceiling: at least 12,000 feet AGL
Clouds: sky clear below 12,000 feet AGL
Weather: HZ  (haze)

METAR text: OPKC 131125Z 22004KT 3000 HZ NSC 24/11 Q1014 NOSIG
Conditions at: OPKC (KARACHI INTL ARP, PK) observed 1125 UTC 13 December 2019
Temperature: 24.0°C (75°F)
Dewpoint: 11.0°C (52°F) [RH = 44%]
Pressure (altimeter): 29.94 inches Hg (1014.0 mb)
Winds: from the SW (220 degrees) at 5 MPH (4 knots; 2.1 m/s)
Visibility: 1.86 miles (2.99 km)
Ceiling: at least 12,000 feet AGL
Clouds: sky clear below 12,000 feet AGL
Weather: HZ  (haze)

METAR text: OPKC 131055Z 20006KT 3000 HZ NSC 24/11 Q1014 NOSIG
Conditions at: OPKC (KARACHI INTL ARP, PK) observed 1055 UTC 13 December 2019
Temperature: 24.0°C (75°F)
Dewpoint: 11.0°C (52°F) [RH = 44%]
Pressure (altimeter): 29.94 inches Hg (1014.0 mb)
Winds: from the SSW (200 degrees) at 7 MPH (6 knots; 3.1 m/s)
Visibility: 1.86 miles (2.99 km)
Ceiling: at least 12,000 feet AGL
Clouds: sky clear below 12,000 feet AGL
Weather: HZ  (haze)

METAR text: OPKC 131025Z VRB03KT 3000 HZ NSC 24/12 Q1014 NOSIG
Conditions at: OPKC (KARACHI INTL ARP, PK) observed 1025 UTC 13 December 2019
Temperature: 24.0°C (75°F)
Dewpoint: 12.0°C (54°F) [RH = 47%]
Pressure (altimeter): 29.94 inches Hg (1014.0 mb)
Winds: variable direction winds at 3 MPH (3 knots; 1.5 m/s)
Visibility: 1.86 miles (2.99 km)
Ceiling: at least 12,000 feet AGL
Clouds: sky clear below 12,000 feet AGL
Weather: HZ  (haze)

METAR text: OPKC 131000Z VRB03KT 3000 HZ NSC 25/11 Q1014 NOSIG
Conditions at: OPKC (KARACHI INTL ARP, PK) observed 1000 UTC 13 December 2019
Temperature: 25.0°C (77°F)
Dewpoint: 11.0°C (52°F) [RH = 41%]
Pressure (altimeter): 29.94 inches Hg (1014.0 mb)
Winds: variable direction winds at 3 MPH (3 knots; 1.5 m/s)
Visibility: 1.86 miles (2.99 km)
Ceiling: at least 12,000 feet AGL
Clouds: sky clear below 12,000 feet AGL
Weather: HZ  (haze)

METAR text: OPKC 130930Z 34005KT 3000 HZ FEW030 25/08 Q1014 NOSIG
Conditions at: OPKC (KARACHI INTL ARP, PK) observed 0930 UTC 13 December 2019
Temperature: 25.0°C (77°F)
Dewpoint: 8.0°C (46°F) [RH = 34%]
Pressure (altimeter): 29.94 inches Hg (1014.0 mb)
Winds: from the NNW (340 degrees) at 6 MPH (5 knots; 2.6 m/s)
Visibility: 1.86 miles (2.99 km)
Ceiling: at least 12,000 feet AGL
Clouds: few clouds at 3000 feet AGL
Weather: HZ  (haze)

METAR text: OPKC 130900Z 31006KT 4000 FU FEW030 25/09 Q1014 NOSIG
Conditions at: OPKC (KARACHI INTL ARP, PK) observed 0900 UTC 13 December 2019
Temperature: 25.0°C (77°F)
Dewpoint: 9.0°C (48°F) [RH = 36%]
Pressure (altimeter): 29.94 inches Hg (1014.0 mb)
Winds: from the NW (310 degrees) at 7 MPH (6 knots; 3.1 m/s)
Visibility: 2.49 miles (4.01 km)
Ceiling: at least 12,000 feet AGL
Clouds: few clouds at 3000 feet AGL
Weather: FU  (smoke)

METAR text: OPKC 130830Z VRB03KT 5000 FU FEW030 25/11 Q1014 NOSIG
Conditions at: OPKC (KARACHI INTL ARP, PK) observed 0830 UTC 13 December 2019
Temperature: 25.0°C (77°F)
Dewpoint: 11.0°C (52°F) [RH = 41%]
Pressure (altimeter): 29.94 inches Hg (1014.0 mb)
Winds: variable direction winds at 3 MPH (3 knots; 1.5 m/s)
Visibility: 3 miles ( 5 km)
Ceiling: at least 12,000 feet AGL
Clouds: few clouds at 3000 feet AGL
Weather: FU  (smoke)

METAR text: OPKC 130800Z 09006KT 4000 FU NSC 24/12 Q1015 NOSIG
Conditions at: OPKC (KARACHI INTL ARP, PK) observed 0800 UTC 13 December 2019
Temperature: 24.0°C (75°F)
Dewpoint: 12.0°C (54°F) [RH = 47%]
Pressure (altimeter): 29.97 inches Hg (1015.0 mb)
Winds: from the E (90 degrees) at 7 MPH (6 knots; 3.1 m/s)
Visibility: 2.49 miles (4.01 km)
Ceiling: at least 12,000 feet AGL
Clouds: sky clear below 12,000 feet AGL
Weather: FU  (smoke)

METAR text: OPKC 130730Z 00000KT 4000 FU NSC 24/11 Q1015 NOSIG
Conditions at: OPKC (KARACHI INTL ARP, PK) observed 0730 UTC 13 December 2019
Temperature: 24.0°C (75°F)
Dewpoint: 11.0°C (52°F) [RH = 44%]
Pressure (altimeter): 29.97 inches Hg (1015.0 mb)
Winds: calm
Visibility: 2.49 miles (4.01 km)
Ceiling: at least 12,000 feet AGL
Clouds: sky clear below 12,000 feet AGL
Weather: FU  (smoke)

METAR text: OPKC 130700Z 05004KT 4000 FU NSC 23/11 Q1016 NOSIG
Conditions at: OPKC (KARACHI INTL ARP, PK) observed 0700 UTC 13 December 2019
Temperature: 23.0°C (73°F)
Dewpoint: 11.0°C (52°F) [RH = 47%]
Pressure (altimeter): 30.00 inches Hg (1016.0 mb)
Winds: from the NE (50 degrees) at 5 MPH (4 knots; 2.1 m/s)
Visibility: 2.49 miles (4.01 km)
Ceiling: at least 12,000 feet AGL
Clouds: sky clear below 12,000 feet AGL
Weather: FU  (smoke)

METAR text: OPKC 130630Z 05004KT 4000 FU NSC 22/11 Q1016 NOSIG
Conditions at: OPKC (KARACHI INTL ARP, PK) observed 0630 UTC 13 December 2019
Temperature: 22.0°C (72°F)
Dewpoint: 11.0°C (52°F) [RH = 50%]
Pressure (altimeter): 30.00 inches Hg (1016.0 mb)
Winds: from the NE (50 degrees) at 5 MPH (4 knots; 2.1 m/s)
Visibility: 2.49 miles (4.01 km)
Ceiling: at least 12,000 feet AGL
Clouds: sky clear below 12,000 feet AGL
Weather: FU  (smoke)

METAR text: OPKC 130600Z 36006KT 3000 FU NSC 21/11 Q1016 NOSIG
Conditions at: OPKC (KARACHI INTL ARP, PK) observed 0600 UTC 13 December 2019
Temperature: 21.0°C (70°F)
Dewpoint: 11.0°C (52°F) [RH = 53%]
Pressure (altimeter): 30.00 inches Hg (1016.0 mb)
Winds: from the N (360 degrees) at 7 MPH (6 knots; 3.1 m/s)
Visibility: 1.86 miles (2.99 km)
Ceiling: at least 12,000 feet AGL
Clouds: sky clear below 12,000 feet AGL
Weather: FU  (smoke)

METAR text: OPKC 130530Z 05006KT 3000 FU NSC 20/10 Q1016 NOSIG
Conditions at: OPKC (KARACHI INTL ARP, PK) observed 0530 UTC 13 December 2019
Temperature: 20.0°C (68°F)
Dewpoint: 10.0°C (50°F) [RH = 53%]
Pressure (altimeter): 30.00 inches Hg (1016.0 mb)
Winds: from the NE (50 degrees) at 7 MPH (6 knots; 3.1 m/s)
Visibility: 1.86 miles (2.99 km)
Ceiling: at least 12,000 feet AGL
Clouds: sky clear below 12,000 feet AGL
Weather: FU  (smoke)

METAR text: OPKC 130500Z 06005KT 3000 FU NSC 19/10 Q1016 NOSIG
Conditions at: OPKC (KARACHI INTL ARP, PK) observed 0500 UTC 13 December 2019
Temperature: 19.0°C (66°F)
Dewpoint: 10.0°C (50°F) [RH = 56%]
Pressure (altimeter): 30.00 inches Hg (1016.0 mb)
Winds: from the ENE (60 degrees) at 6 MPH (5 knots; 2.6 m/s)
Visibility: 1.86 miles (2.99 km)
Ceiling: at least 12,000 feet AGL
Clouds: sky clear below 12,000 feet AGL
Weather: FU  (smoke)

METAR text: OPKC 130430Z 07007KT 3000 FU NSC 18/10 Q1016 NOSIG
Conditions at: OPKC (KARACHI INTL ARP, PK) observed 0430 UTC 13 December 2019
Temperature: 18.0°C (64°F)
Dewpoint: 10.0°C (50°F) [RH = 59%]
Pressure (altimeter): 30.00 inches Hg (1016.0 mb)
Winds: from the ENE (70 degrees) at 8 MPH (7 knots; 3.6 m/s)
Visibility: 1.86 miles (2.99 km)
Ceiling: at least 12,000 feet AGL
Clouds: sky clear below 12,000 feet AGL
Weather: FU  (smoke)

METAR text: OPKC 130400Z 06006KT 3000 FU NSC 17/10 Q1016 NOSIG
Conditions at: OPKC (KARACHI INTL ARP, PK) observed 0400 UTC 13 December 2019
Temperature: 17.0°C (63°F)
Dewpoint: 10.0°C (50°F) [RH = 63%]
Pressure (altimeter): 30.00 inches Hg (1016.0 mb)
Winds: from the ENE (60 degrees) at 7 MPH (6 knots; 3.1 m/s)
Visibility: 1.86 miles (2.99 km)
Ceiling: at least 12,000 feet AGL
Clouds: sky clear below 12,000 feet AGL
Weather: FU  (smoke)

METAR text: OPKC 130325Z 07006KT 3000 FU NSC 16/11 Q1015 NOSIG
Conditions at: OPKC (KARACHI INTL ARP, PK) observed 0325 UTC 13 December 2019
Temperature: 16.0°C (61°F)
Dewpoint: 11.0°C (52°F) [RH = 72%]
Pressure (altimeter): 29.97 inches Hg (1015.0 mb)
Winds: from the ENE (70 degrees) at 7 MPH (6 knots; 3.1 m/s)
Visibility: 1.86 miles (2.99 km)
Ceiling: at least 12,000 feet AGL
Clouds: sky clear below 12,000 feet AGL
Weather: FU  (smoke)

METAR text: OPKC 130255Z 06005KT 3000 FU FEW030 16/12 Q1015 NOSIG
Conditions at: OPKC (KARACHI INTL ARP, PK) observed 0255 UTC 13 December 2019
Temperature: 16.0°C (61°F)
Dewpoint: 12.0°C (54°F) [RH = 77%]
Pressure (altimeter): 29.97 inches Hg (1015.0 mb)
Winds: from the ENE (60 degrees) at 6 MPH (5 knots; 2.6 m/s)
Visibility: 1.86 miles (2.99 km)
Ceiling: at least 12,000 feet AGL
Clouds: few clouds at 3000 feet AGL
Weather: FU  (smoke)

METAR text: OPKC 130225Z 06006KT 3000 FU SCT030 16/12 Q1014 NOSIG
Conditions at: OPKC (KARACHI INTL ARP, PK) observed 0225 UTC 13 December 2019
Temperature: 16.0°C (61°F)
Dewpoint: 12.0°C (54°F) [RH = 77%]
Pressure (altimeter): 29.94 inches Hg (1014.0 mb)
Winds: from the ENE (60 degrees) at 7 MPH (6 knots; 3.1 m/s)
Visibility: 1.86 miles (2.99 km)
Ceiling: at least 12,000 feet AGL
Clouds: scattered clouds at 3000 feet AGL
Weather: FU  (smoke)

METAR text: OPKC 130155Z 05004KT 3000 FU SCT030 16/11 Q1014 NOSIG
Conditions at: OPKC (KARACHI INTL ARP, PK) observed 0155 UTC 13 December 2019
Temperature: 16.0°C (61°F)
Dewpoint: 11.0°C (52°F) [RH = 72%]
Pressure (altimeter): 29.94 inches Hg (1014.0 mb)
Winds: from the NE (50 degrees) at 5 MPH (4 knots; 2.1 m/s)
Visibility: 1.86 miles (2.99 km)
Ceiling: at least 12,000 feet AGL
Clouds: scattered clouds at 3000 feet AGL
Weather: FU  (smoke)

METAR text: OPKC 130125Z 00000KT 4000 FU SCT020 16/11 Q1014 NOSIG
Conditions at: OPKC (KARACHI INTL ARP, PK) observed 0125 UTC 13 December 2019
Temperature: 16.0°C (61°F)
Dewpoint: 11.0°C (52°F) [RH = 72%]
Pressure (altimeter): 29.94 inches Hg (1014.0 mb)
Winds: calm
Visibility: 2.49 miles (4.01 km)
Ceiling: at least 12,000 feet AGL
Clouds: scattered clouds at 2000 feet AGL
Weather: FU  (smoke)

METAR text: OPKC 130055Z 00000KT 4000 FU SCT020 16/10 Q1013 NOSIG
Conditions at: OPKC (KARACHI INTL ARP, PK) observed 0055 UTC 13 December 2019
Temperature: 16.0°C (61°F)
Dewpoint: 10.0°C (50°F) [RH = 68%]
Pressure (altimeter): 29.91 inches Hg (1013.0 mb)
Winds: calm
Visibility: 2.49 miles (4.01 km)
Ceiling: at least 12,000 feet AGL
Clouds: scattered clouds at 2000 feet AGL
Weather: FU  (smoke)

METAR text: OPKC 130025Z 06004KT 4000 FU SCT020 16/10 Q1013 NOSIG
Conditions at: OPKC (KARACHI INTL ARP, PK) observed 0025 UTC 13 December 2019
Temperature: 16.0°C (61°F)
Dewpoint: 10.0°C (50°F) [RH = 68%]
Pressure (altimeter): 29.91 inches Hg (1013.0 mb)
Winds: from the ENE (60 degrees) at 5 MPH (4 knots; 2.1 m/s)
Visibility: 2.49 miles (4.01 km)
Ceiling: at least 12,000 feet AGL
Clouds: scattered clouds at 2000 feet AGL
Weather: FU  (smoke)

METAR text: OPKC 122355Z 07005KT 4000 FU SCT020 16/10 Q1013 NOSIG
Conditions at: OPKC (KARACHI INTL ARP, PK) observed 2355 UTC 12 December 2019
Temperature: 16.0°C (61°F)
Dewpoint: 10.0°C (50°F) [RH = 68%]
Pressure (altimeter): 29.91 inches Hg (1013.0 mb)
Winds: from the ENE (70 degrees) at 6 MPH (5 knots; 2.6 m/s)
Visibility: 2.49 miles (4.01 km)
Ceiling: at least 12,000 feet AGL
Clouds: scattered clouds at 2000 feet AGL
Weather: FU  (smoke)

METAR text: OPKC 122325Z 05006KT 4000 FU SCT020 16/10 Q1013 NOSIG
Conditions at: OPKC (KARACHI INTL ARP, PK) observed 2325 UTC 12 December 2019
Temperature: 16.0°C (61°F)
Dewpoint: 10.0°C (50°F) [RH = 68%]
Pressure (altimeter): 29.91 inches Hg (1013.0 mb)
Winds: from the NE (50 degrees) at 7 MPH (6 knots; 3.1 m/s)
Visibility: 2.49 miles (4.01 km)
Ceiling: at least 12,000 feet AGL
Clouds: scattered clouds at 2000 feet AGL
Weather: FU  (smoke)

METAR text: OPKC 122255Z 02005KT 4000 FU SCT020 16/10 Q1013 NOSIG
Conditions at: OPKC (KARACHI INTL ARP, PK) observed 2255 UTC 12 December 2019
Temperature: 16.0°C (61°F)
Dewpoint: 10.0°C (50°F) [RH = 68%]
Pressure (altimeter): 29.91 inches Hg (1013.0 mb)
Winds: from the NNE (20 degrees) at 6 MPH (5 knots; 2.6 m/s)
Visibility: 2.49 miles (4.01 km)
Ceiling: at least 12,000 feet AGL
Clouds: scattered clouds at 2000 feet AGL
Weather: FU  (smoke)

METAR text: OPKC 122225Z 05007KT 4000 FU SCT030 17/11 Q1013 NOSIG
Conditions at: OPKC (KARACHI INTL ARP, PK) observed 2225 UTC 12 December 2019
Temperature: 17.0°C (63°F)
Dewpoint: 11.0°C (52°F) [RH = 68%]
Pressure (altimeter): 29.91 inches Hg (1013.0 mb)
Winds: from the NE (50 degrees) at 8 MPH (7 knots; 3.6 m/s)
Visibility: 2.49 miles (4.01 km)
Ceiling: at least 12,000 feet AGL
Clouds: scattered clouds at 3000 feet AGL
Weather: FU  (smoke)

METAR text: OPKC 122155Z 05008KT 4000 FU SCT030 17/11 Q1013 NOSIG
Conditions at: OPKC (KARACHI INTL ARP, PK) observed 2155 UTC 12 December 2019
Temperature: 17.0°C (63°F)
Dewpoint: 11.0°C (52°F) [RH = 68%]
Pressure (altimeter): 29.91 inches Hg (1013.0 mb)
Winds: from the NE (50 degrees) at 9 MPH (8 knots; 4.1 m/s)
Visibility: 2.49 miles (4.01 km)
Ceiling: at least 12,000 feet AGL
Clouds: scattered clouds at 3000 feet AGL
Weather: FU  (smoke)

METAR text: OPKC 122125Z 05009KT 4000 FU SCT030 17/11 Q1013 NOSIG
Conditions at: OPKC (KARACHI INTL ARP, PK) observed 2125 UTC 12 December 2019
Temperature: 17.0°C (63°F)
Dewpoint: 11.0°C (52°F) [RH = 68%]
Pressure (altimeter): 29.91 inches Hg (1013.0 mb)
Winds: from the NE (50 degrees) at 10 MPH (9 knots; 4.6 m/s)
Visibility: 2.49 miles (4.01 km)
Ceiling: at least 12,000 feet AGL
Clouds: scattered clouds at 3000 feet AGL
Weather: FU  (smoke)

METAR text: OPKC 122055Z 05011KT 4000 FU BKN030 17/11 Q1013 NOSIG
Conditions at: OPKC (KARACHI INTL ARP, PK) observed 2055 UTC 12 December 2019
Temperature: 17.0°C (63°F)
Dewpoint: 11.0°C (52°F) [RH = 68%]
Pressure (altimeter): 29.91 inches Hg (1013.0 mb)
Winds: from the NE (50 degrees) at 13 MPH (11 knots; 5.7 m/s)
Visibility: 2.49 miles (4.01 km)
Ceiling: 3000 feet AGL
Clouds: broken clouds at 3000 feet AGL
Weather: FU  (smoke)

METAR text: OPKC 122025Z 04010KT 4000 FU BKN030 18/11 Q1013 NOSIG
Conditions at: OPKC (KARACHI INTL ARP, PK) observed 2025 UTC 12 December 2019
Temperature: 18.0°C (64°F)
Dewpoint: 11.0°C (52°F) [RH = 64%]
Pressure (altimeter): 29.91 inches Hg (1013.0 mb)
Winds: from the NE (40 degrees) at 12 MPH (10 knots; 5.1 m/s)
Visibility: 2.49 miles (4.01 km)
Ceiling: 3000 feet AGL
Clouds: broken clouds at 3000 feet AGL
Weather: FU  (smoke)

METAR text: OPKC 121955Z 04010KT 4000 FU BKN030 18/11 Q1013 NOSIG
Conditions at: OPKC (KARACHI INTL ARP, PK) observed 1955 UTC 12 December 2019
Temperature: 18.0°C (64°F)
Dewpoint: 11.0°C (52°F) [RH = 64%]
Pressure (altimeter): 29.91 inches Hg (1013.0 mb)
Winds: from the NE (40 degrees) at 12 MPH (10 knots; 5.1 m/s)
Visibility: 2.49 miles (4.01 km)
Ceiling: 3000 feet AGL
Clouds: broken clouds at 3000 feet AGL
Weather: FU  (smoke)

METAR text: OPKC 121925Z 05010KT 4000 FU BKN030 18/10 Q1012 NOSIG
Conditions at: OPKC (KARACHI INTL ARP, PK) observed 1925 UTC 12 December 2019
Temperature: 18.0°C (64°F)
Dewpoint: 10.0°C (50°F) [RH = 59%]
Pressure (altimeter): 29.88 inches Hg (1012.0 mb)
Winds: from the NE (50 degrees) at 12 MPH (10 knots; 5.1 m/s)
Visibility: 2.49 miles (4.01 km)
Ceiling: 3000 feet AGL
Clouds: broken clouds at 3000 feet AGL
Weather: FU  (smoke)

METAR text: OPKC 121855Z 05006KT 4000 FU NSC 17/10 Q1013 NOSIG
Conditions at: OPKC (KARACHI INTL ARP, PK) observed 1855 UTC 12 December 2019
Temperature: 17.0°C (63°F)
Dewpoint: 10.0°C (50°F) [RH = 63%]
Pressure (altimeter): 29.91 inches Hg (1013.0 mb)
Winds: from the NE (50 degrees) at 7 MPH (6 knots; 3.1 m/s)
Visibility: 2.49 miles (4.01 km)
Ceiling: at least 12,000 feet AGL
Clouds: sky clear below 12,000 feet AGL
Weather: FU  (smoke)

METAR text: OPKC 121825Z 06007KT 4000 FU NSC 17/10 Q1013 NOSIG
Conditions at: OPKC (KARACHI INTL ARP, PK) observed 1825 UTC 12 December 2019
Temperature: 17.0°C (63°F)
Dewpoint: 10.0°C (50°F) [RH = 63%]
Pressure (altimeter): 29.91 inches Hg (1013.0 mb)
Winds: from the ENE (60 degrees) at 8 MPH (7 knots; 3.6 m/s)
Visibility: 2.49 miles (4.01 km)
Ceiling: at least 12,000 feet AGL
Clouds: sky clear below 12,000 feet AGL
Weather: FU  (smoke)

METAR text: OPKC 121755Z 06008KT 6000 NSC 17/11 Q1013 NOSIG
Conditions at: OPKC (KARACHI INTL ARP, PK) observed 1755 UTC 12 December 2019
Temperature: 17.0°C (63°F)
Dewpoint: 11.0°C (52°F) [RH = 68%]
Pressure (altimeter): 29.91 inches Hg (1013.0 mb)
Winds: from the ENE (60 degrees) at 9 MPH (8 knots; 4.1 m/s)
Visibility: 4 miles ( 6 km)
Ceiling: at least 12,000 feet AGL
Clouds: sky clear below 12,000 feet AGL
Weather: no significant weather observed at this time

METAR text: OPKC 121725Z 04010KT 5000 HZ NSC 18/11 Q1013 NOSIG
Conditions at: OPKC (KARACHI INTL ARP, PK) observed 1725 UTC 12 December 2019
Temperature: 18.0°C (64°F)
Dewpoint: 11.0°C (52°F) [RH = 64%]
Pressure (altimeter): 29.91 inches Hg (1013.0 mb)
Winds: from the NE (40 degrees) at 12 MPH (10 knots; 5.1 m/s)
Visibility: 3 miles ( 5 km)
Ceiling: at least 12,000 feet AGL
Clouds: sky clear below 12,000 feet AGL
Weather: HZ  (haze)

METAR text: OPKC 121655Z 03006KT 5000 HZ SCT030 18/11 Q1013 NOSIG
Conditions at: OPKC (KARACHI INTL ARP, PK) observed 1655 UTC 12 December 2019
Temperature: 18.0°C (64°F)
Dewpoint: 11.0°C (52°F) [RH = 64%]
Pressure (altimeter): 29.91 inches Hg (1013.0 mb)
Winds: from the NNE (30 degrees) at 7 MPH (6 knots; 3.1 m/s)
Visibility: 3 miles ( 5 km)
Ceiling: at least 12,000 feet AGL
Clouds: scattered clouds at 3000 feet AGL
Weather: HZ  (haze)

METAR text: OPKC 121625Z 07009KT 4000 HZ SCT030 18/11 Q1013 NOSIG
Conditions at: OPKC (KARACHI INTL ARP, PK) observed 1625 UTC 12 December 2019
Temperature: 18.0°C (64°F)
Dewpoint: 11.0°C (52°F) [RH = 64%]
Pressure (altimeter): 29.91 inches Hg (1013.0 mb)
Winds: from the ENE (70 degrees) at 10 MPH (9 knots; 4.6 m/s)
Visibility: 2.49 miles (4.01 km)
Ceiling: at least 12,000 feet AGL
Clouds: scattered clouds at 3000 feet AGL
Weather: HZ  (haze)

METAR text: OPKC 121600Z 08010KT 4000 HZ SCT030 18/11 Q1012 NOSIG
Conditions at: OPKC (KARACHI INTL ARP, PK) observed 1600 UTC 12 December 2019
Temperature: 18.0°C (64°F)
Dewpoint: 11.0°C (52°F) [RH = 64%]
Pressure (altimeter): 29.88 inches Hg (1012.0 mb)
Winds: from the E (80 degrees) at 12 MPH (10 knots; 5.1 m/s)
Visibility: 2.49 miles (4.01 km)
Ceiling: at least 12,000 feet AGL
Clouds: scattered clouds at 3000 feet AGL
Weather: HZ  (haze)

METAR text: OPKC 121530Z 07011KT 4000 HZ SCT030 19/11 Q1012 NOSIG
Conditions at: OPKC (KARACHI INTL ARP, PK) observed 1530 UTC 12 December 2019
Temperature: 19.0°C (66°F)
Dewpoint: 11.0°C (52°F) [RH = 60%]
Pressure (altimeter): 29.88 inches Hg (1012.0 mb)
Winds: from the ENE (70 degrees) at 13 MPH (11 knots; 5.7 m/s)
Visibility: 2.49 miles (4.01 km)
Ceiling: at least 12,000 feet AGL
Clouds: scattered clouds at 3000 feet AGL
Weather: HZ  (haze)

METAR text: OPKC 121430Z 07012KT 3000 HZ SCT030 19/11 Q1011 NOSIG
Conditions at: OPKC (KARACHI INTL ARP, PK) observed 1430 UTC 12 December 2019
Temperature: 19.0°C (66°F)
Dewpoint: 11.0°C (52°F) [RH = 60%]
Pressure (altimeter): 29.85 inches Hg (1011.0 mb)
Winds: from the ENE (70 degrees) at 14 MPH (12 knots; 6.2 m/s)
Visibility: 1.86 miles (2.99 km)
Ceiling: at least 12,000 feet AGL
Clouds: scattered clouds at 3000 feet AGL
Weather: HZ  (haze)

METAR text: OPKC 121400Z 08009KT 3000 HZ SCT030 20/11 Q1011 NOSIG
Conditions at: OPKC (KARACHI INTL ARP, PK) observed 1400 UTC 12 December 2019
Temperature: 20.0°C (68°F)
Dewpoint: 11.0°C (52°F) [RH = 56%]
Pressure (altimeter): 29.85 inches Hg (1011.0 mb)
Winds: from the E (80 degrees) at 10 MPH (9 knots; 4.6 m/s)
Visibility: 1.86 miles (2.99 km)
Ceiling: at least 12,000 feet AGL
Clouds: scattered clouds at 3000 feet AGL
Weather: HZ  (haze)

METAR text: OPKC 121330Z 07010KT 2000 HZ SCT030 21/10 Q1011 NOSIG
Conditions at: OPKC (KARACHI INTL ARP, PK) observed 1330 UTC 12 December 2019
Temperature: 21.0°C (70°F)
Dewpoint: 10.0°C (50°F) [RH = 49%]
Pressure (altimeter): 29.85 inches Hg (1011.0 mb)
Winds: from the ENE (70 degrees) at 12 MPH (10 knots; 5.1 m/s)
Visibility: 1.24 miles (2.00 km)
Ceiling: at least 12,000 feet AGL
Clouds: scattered clouds at 3000 feet AGL
Weather: HZ  (haze)

METAR text: OPKC 121300Z 06008KT 2000 HZ SCT030 21/11 Q1010 NOSIG
Conditions at: OPKC (KARACHI INTL ARP, PK) observed 1300 UTC 12 December 2019
Temperature: 21.0°C (70°F)
Dewpoint: 11.0°C (52°F) [RH = 53%]
Pressure (altimeter): 29.82 inches Hg (1010.0 mb)
Winds: from the ENE (60 degrees) at 9 MPH (8 knots; 4.1 m/s)
Visibility: 1.24 miles (2.00 km)
Ceiling: at least 12,000 feet AGL
Clouds: scattered clouds at 3000 feet AGL
Weather: HZ  (haze)

METAR text: OPKC 121230Z 05012KT 2500 HZ SCT030 22/11 Q1010 NOSIG
Conditions at: OPKC (KARACHI INTL ARP, PK) observed 1230 UTC 12 December 2019
Temperature: 22.0°C (72°F)
Dewpoint: 11.0°C (52°F) [RH = 50%]
Pressure (altimeter): 29.82 inches Hg (1010.0 mb)
Winds: from the NE (50 degrees) at 14 MPH (12 knots; 6.2 m/s)
Visibility: 1.55 miles (2.49 km)
Ceiling: at least 12,000 feet AGL
Clouds: scattered clouds at 3000 feet AGL
Weather: HZ  (haze)

METAR text: OPKC 121200Z 09007KT 3500 HZ SCT030 24/11 Q1010 NOSIG
Conditions at: OPKC (KARACHI INTL ARP, PK) observed 1200 UTC 12 December 2019
Temperature: 24.0°C (75°F)
Dewpoint: 11.0°C (52°F) [RH = 44%]
Pressure (altimeter): 29.82 inches Hg (1010.0 mb)
Winds: from the E (90 degrees) at 8 MPH (7 knots; 3.6 m/s)
Visibility: 2.17 miles (3.49 km)
Ceiling: at least 12,000 feet AGL
Clouds: scattered clouds at 3000 feet AGL
Weather: HZ  (haze)

METAR text: OPKC 121130Z 07008KT 4000 HZ SCT030 24/11 Q1010 NOSIG
Conditions at: OPKC (KARACHI INTL ARP, PK) observed 1130 UTC 12 December 2019
Temperature: 24.0°C (75°F)
Dewpoint: 11.0°C (52°F) [RH = 44%]
Pressure (altimeter): 29.82 inches Hg (1010.0 mb)
Winds: from the ENE (70 degrees) at 9 MPH (8 knots; 4.1 m/s)
Visibility: 2.49 miles (4.01 km)
Ceiling: at least 12,000 feet AGL
Clouds: scattered clouds at 3000 feet AGL
Weather: HZ  (haze)

METAR text: OPKC 121100Z 04007KT 4000 HZ SCT030 BKN100 24/12 Q1009 NOSIG
Conditions at: OPKC (KARACHI INTL ARP, PK) observed 1100 UTC 12 December 2019
Temperature: 24.0°C (75°F)
Dewpoint: 12.0°C (54°F) [RH = 47%]
Pressure (altimeter): 29.79 inches Hg (1009.0 mb)
Winds: from the NE (40 degrees) at 8 MPH (7 knots; 3.6 m/s)
Visibility: 2.49 miles (4.01 km)
Ceiling: 10000 feet AGL
Clouds: scattered clouds at 3000 feet AGL
broken clouds at 10000 feet AGL
Weather: HZ  (haze)

METAR text: OPKC 121030Z 06012KT 4000 HZ SCT030 BKN100 24/12 Q1009 NOSIG
Conditions at: OPKC (KARACHI INTL ARP, PK) observed 1030 UTC 12 December 2019
Temperature: 24.0°C (75°F)
Dewpoint: 12.0°C (54°F) [RH = 47%]
Pressure (altimeter): 29.79 inches Hg (1009.0 mb)
Winds: from the ENE (60 degrees) at 14 MPH (12 knots; 6.2 m/s)
Visibility: 2.49 miles (4.01 km)
Ceiling: 10000 feet AGL
Clouds: scattered clouds at 3000 feet AGL
broken clouds at 10000 feet AGL
Weather: HZ  (haze)

METAR text: OPKC 121000Z 05006KT 4000 HZ SCT030 24/12 Q1010 NOSIG
Conditions at: OPKC (KARACHI INTL ARP, PK) observed 1000 UTC 12 December 2019
Temperature: 24.0°C (75°F)
Dewpoint: 12.0°C (54°F) [RH = 47%]
Pressure (altimeter): 29.82 inches Hg (1010.0 mb)
Winds: from the NE (50 degrees) at 7 MPH (6 knots; 3.1 m/s)
Visibility: 2.49 miles (4.01 km)
Ceiling: at least 12,000 feet AGL
Clouds: scattered clouds at 3000 feet AGL
Weather: HZ  (haze)

METAR text: OPKC 120900Z 07006KT 4000 HZ BKN030 24/12 Q1010 NOSIG
Conditions at: OPKC (KARACHI INTL ARP, PK) observed 0900 UTC 12 December 2019
Temperature: 24.0°C (75°F)
Dewpoint: 12.0°C (54°F) [RH = 47%]
Pressure (altimeter): 29.82 inches Hg (1010.0 mb)
Winds: from the ENE (70 degrees) at 7 MPH (6 knots; 3.1 m/s)
Visibility: 2.49 miles (4.01 km)
Ceiling: 3000 feet AGL
Clouds: broken clouds at 3000 feet AGL
Weather: HZ  (haze)

METAR text: OPKC 120855Z 09006KT 4000 HZ BKN030 24/12 Q1010 NOSIG
Conditions at: OPKC (KARACHI INTL ARP, PK) observed 0855 UTC 12 December 2019
Temperature: 24.0°C (75°F)
Dewpoint: 12.0°C (54°F) [RH = 47%]
Pressure (altimeter): 29.82 inches Hg (1010.0 mb)
Winds: from the E (90 degrees) at 7 MPH (6 knots; 3.1 m/s)
Visibility: 2.49 miles (4.01 km)
Ceiling: 3000 feet AGL
Clouds: broken clouds at 3000 feet AGL
Weather: HZ  (haze)

METAR text: OPKC 120825Z 08007KT 4000 HZ SCT030 24/12 Q1010 NOSIG
Conditions at: OPKC (KARACHI INTL ARP, PK) observed 0825 UTC 12 December 2019
Temperature: 24.0°C (75°F)
Dewpoint: 12.0°C (54°F) [RH = 47%]
Pressure (altimeter): 29.82 inches Hg (1010.0 mb)
Winds: from the E (80 degrees) at 8 MPH (7 knots; 3.6 m/s)
Visibility: 2.49 miles (4.01 km)
Ceiling: at least 12,000 feet AGL
Clouds: scattered clouds at 3000 feet AGL
Weather: HZ  (haze)

METAR text: OPKC 120755Z 06006KT 4000 HZ SCT030 24/12 Q1011 NOSIG
Conditions at: OPKC (KARACHI INTL ARP, PK) observed 0755 UTC 12 December 2019
Temperature: 24.0°C (75°F)
Dewpoint: 12.0°C (54°F) [RH = 47%]
Pressure (altimeter): 29.85 inches Hg (1011.0 mb)
Winds: from the ENE (60 degrees) at 7 MPH (6 knots; 3.1 m/s)
Visibility: 2.49 miles (4.01 km)
Ceiling: at least 12,000 feet AGL
Clouds: scattered clouds at 3000 feet AGL
Weather: HZ  (haze)

METAR text: OPKC 120725Z 06009KT 4000 HZ FEW030 24/13 Q1011 NOSIG
Conditions at: OPKC (KARACHI INTL ARP, PK) observed 0725 UTC 12 December 2019
Temperature: 24.0°C (75°F)
Dewpoint: 13.0°C (55°F) [RH = 50%]
Pressure (altimeter): 29.85 inches Hg (1011.0 mb)
Winds: from the ENE (60 degrees) at 10 MPH (9 knots; 4.6 m/s)
Visibility: 2.49 miles (4.01 km)
Ceiling: at least 12,000 feet AGL
Clouds: few clouds at 3000 feet AGL
Weather: HZ  (haze)

METAR text: OPKC 120655Z 06008KT 4000 HZ FEW030 23/13 Q1012 NOSIG
Conditions at: OPKC (KARACHI INTL ARP, PK) observed 0655 UTC 12 December 2019
Temperature: 23.0°C (73°F)
Dewpoint: 13.0°C (55°F) [RH = 53%]
Pressure (altimeter): 29.88 inches Hg (1012.0 mb)
Winds: from the ENE (60 degrees) at 9 MPH (8 knots; 4.1 m/s)
Visibility: 2.49 miles (4.01 km)
Ceiling: at least 12,000 feet AGL
Clouds: few clouds at 3000 feet AGL
Weather: HZ  (haze)

METAR text: OPKC 120625Z 08010KT 4000 HZ FEW030 23/14 Q1012 NOSIG
Conditions at: OPKC (KARACHI INTL ARP, PK) observed 0625 UTC 12 December 2019
Temperature: 23.0°C (73°F)
Dewpoint: 14.0°C (57°F) [RH = 57%]
Pressure (altimeter): 29.88 inches Hg (1012.0 mb)
Winds: from the E (80 degrees) at 12 MPH (10 knots; 5.1 m/s)
Visibility: 2.49 miles (4.01 km)
Ceiling: at least 12,000 feet AGL
Clouds: few clouds at 3000 feet AGL
Weather: HZ  (haze)

METAR text: OPKC 120455Z 06009KT 4000 HZ FEW090 21/15 Q1013 NOSIG
Conditions at: OPKC (KARACHI INTL ARP, PK) observed 0455 UTC 12 December 2019
Temperature: 21.0°C (70°F)
Dewpoint: 15.0°C (59°F) [RH = 69%]
Pressure (altimeter): 29.91 inches Hg (1013.0 mb)
Winds: from the ENE (60 degrees) at 10 MPH (9 knots; 4.6 m/s)
Visibility: 2.49 miles (4.01 km)
Ceiling: at least 12,000 feet AGL
Clouds: few clouds at 9000 feet AGL
Weather: HZ  (haze)

METAR text: OPKC 120425Z 03004KT 3000 HZ BKN020 BKN090 20/15 Q1013 NOSIG
Conditions at: OPKC (KARACHI INTL ARP, PK) observed 0425 UTC 12 December 2019
Temperature: 20.0°C (68°F)
Dewpoint: 15.0°C (59°F) [RH = 73%]
Pressure (altimeter): 29.91 inches Hg (1013.0 mb)
Winds: from the NNE (30 degrees) at 5 MPH (4 knots; 2.1 m/s)
Visibility: 1.86 miles (2.99 km)
Ceiling: 2000 feet AGL
Clouds: broken clouds at 2000 feet AGL
broken clouds at 9000 feet AGL
Weather: HZ  (haze)

METAR text: OPKC 120355Z 06009KT 3000 HZ BKN020 BKN090 19/14 Q1013 NOSIG
Conditions at: OPKC (KARACHI INTL ARP, PK) observed 0355 UTC 12 December 2019
Temperature: 19.0°C (66°F)
Dewpoint: 14.0°C (57°F) [RH = 73%]
Pressure (altimeter): 29.91 inches Hg (1013.0 mb)
Winds: from the ENE (60 degrees) at 10 MPH (9 knots; 4.6 m/s)
Visibility: 1.86 miles (2.99 km)
Ceiling: 2000 feet AGL
Clouds: broken clouds at 2000 feet AGL
broken clouds at 9000 feet AGL
Weather: HZ  (haze)

METAR text: OPKC 120255Z 04003KT 3000 HZ BKN020 BKN090 19/14 Q1012 NOSIG
Conditions at: OPKC (KARACHI INTL ARP, PK) observed 0255 UTC 12 December 2019
Temperature: 19.0°C (66°F)
Dewpoint: 14.0°C (57°F) [RH = 73%]
Pressure (altimeter): 29.88 inches Hg (1012.0 mb)
Winds: from the NE (40 degrees) at 3 MPH (3 knots; 1.5 m/s)
Visibility: 1.86 miles (2.99 km)
Ceiling: 2000 feet AGL
Clouds: broken clouds at 2000 feet AGL
broken clouds at 9000 feet AGL
Weather: HZ  (haze)

METAR text: OPKC 120225Z 07007KT 3000 HZ BKN020 BKN090 19/14 Q1012 NOSIG
Conditions at: OPKC (KARACHI INTL ARP, PK) observed 0225 UTC 12 December 2019
Temperature: 19.0°C (66°F)
Dewpoint: 14.0°C (57°F) [RH = 73%]
Pressure (altimeter): 29.88 inches Hg (1012.0 mb)
Winds: from the ENE (70 degrees) at 8 MPH (7 knots; 3.6 m/s)
Visibility: 1.86 miles (2.99 km)
Ceiling: 2000 feet AGL
Clouds: broken clouds at 2000 feet AGL
broken clouds at 9000 feet AGL
Weather: HZ  (haze)

METAR text: OPKC 120155Z 30007KT 4000 HZ BKN020 BKN090 19/14 Q1012 NOSIG
Conditions at: OPKC (KARACHI INTL ARP, PK) observed 0155 UTC 12 December 2019
Temperature: 19.0°C (66°F)
Dewpoint: 14.0°C (57°F) [RH = 73%]
Pressure (altimeter): 29.88 inches Hg (1012.0 mb)
Winds: from the WNW (300 degrees) at 8 MPH (7 knots; 3.6 m/s)
Visibility: 2.49 miles (4.01 km)
Ceiling: 2000 feet AGL
Clouds: broken clouds at 2000 feet AGL
broken clouds at 9000 feet AGL
Weather: HZ  (haze)

Forecast for: OPKC (KARACHI INTL ARP, PK)
Text: TAF OPKC 131230Z 1315/1324 26005G15KT 5000 HZ NSC
Forecast period: 1500 to 1800 UTC 13 December 2019
Forecast type: FROM: standard forecast or significant change
Winds: from the W (260 degrees) at 6 MPH (5 knots; 2.6 m/s)
gusting to 17 MPH (15 knots; 7.7 m/s)
Visibility: 3 miles (5 km)
Ceiling: unknown
Clouds: missing
Weather: HZ  (haze)
Text: FM131800 29005KT 3000 FU NSC
Forecast period: 1800 UTC 13 December 2019 to 0000 UTC 14 December 2019
Forecast type: FROM: standard forecast or significant change
Winds: from the WNW (290 degrees) at 6 MPH (5 knots; 2.6 m/s)
Visibility: 1.86 miles (2.99 km)
Ceiling: unknown
Clouds: missing
Weather: FU  (smoke)